sensor_id;sensor_type;location;lat;lon;timestamp;pressure;altitude;pressure_sealevel;temperature;humidity
34979;BME280;21185;50.978;13.720;2023-05-23T00:03:18;97893.69;;;20.05;55.40
34979;BME280;21185;50.978;13.720;2023-05-23T00:08:24;97882.13;;;20.07;55.73
34979;BME280;21185;50.978;13.720;2023-05-23T00:13:26;97886.13;;;20.09;55.68
34979;BME280;21185;50.978;13.720;2023-05-23T00:18:28;97895.38;;;20.12;56.35
34979;BME280;21185;50.978;13.720;2023-05-23T00:23:31;97889.09;;;20.13;56.41
34979;BME280;21185;50.978;13.720;2023-05-23T00:28:36;97911.31;;;20.05;57.63
34979;BME280;21185;50.978;13.720;2023-05-23T00:33:38;97907.19;;;19.97;57.90
34979;BME280;21185;50.978;13.720;2023-05-23T00:38:40;97918.19;;;19.94;58.28
34979;BME280;21185;50.978;13.720;2023-05-23T00:43:41;97908.13;;;19.91;58.23
34979;BME280;21185;50.978;13.720;2023-05-23T00:48:43;97893.34;;;19.90;58.27
34979;BME280;21185;50.978;13.720;2023-05-23T00:53:46;97887.75;;;19.87;58.64
34979;BME280;21185;50.978;13.720;2023-05-23T00:58:49;97882.72;;;19.85;58.95
34979;BME280;21185;50.978;13.720;2023-05-23T01:03:50;97896.34;;;19.82;59.57
34979;BME280;21185;50.978;13.720;2023-05-23T01:08:53;97918.22;;;19.83;59.44
34979;BME280;21185;50.978;13.720;2023-05-23T01:14:06;97920.03;;;19.82;60.21
34979;BME280;21185;50.978;13.720;2023-05-23T01:29:56;97914.53;;;19.72;60.79
34979;BME280;21185;50.978;13.720;2023-05-23T01:35:00;97913.16;;;19.69;60.96
34979;BME280;21185;50.978;13.720;2023-05-23T01:40:03;97926.56;;;19.68;61.07
34979;BME280;21185;50.978;13.720;2023-05-23T01:45:06;97920.72;;;19.66;61.61
34979;BME280;21185;50.978;13.720;2023-05-23T01:50:10;97921.41;;;19.61;62.02
34979;BME280;21185;50.978;13.720;2023-05-23T01:55:16;97913.16;;;19.58;62.31
34979;BME280;21185;50.978;13.720;2023-05-23T02:00:20;97897.25;;;19.53;62.29
34979;BME280;21185;50.978;13.720;2023-05-23T02:05:22;97897.13;;;19.48;62.41
34979;BME280;21185;50.978;13.720;2023-05-23T02:10:24;97901.81;;;19.46;62.46
34979;BME280;21185;50.978;13.720;2023-05-23T02:15:27;97895.16;;;19.43;63.05
34979;BME280;21185;50.978;13.720;2023-05-23T02:20:32;97892.19;;;19.39;63.52
34979;BME280;21185;50.978;13.720;2023-05-23T02:25:34;97877.09;;;19.35;63.51
34979;BME280;21185;50.978;13.720;2023-05-23T02:30:40;97870.91;;;19.29;63.37
34979;BME280;21185;50.978;13.720;2023-05-23T02:35:42;97862.53;;;19.21;63.76
34979;BME280;21185;50.978;13.720;2023-05-23T02:40:44;97846.88;;;19.14;64.17
34979;BME280;21185;50.978;13.720;2023-05-23T02:45:46;97837.84;;;19.10;63.91
34979;BME280;21185;50.978;13.720;2023-05-23T02:50:49;97836.22;;;19.09;64.35
34979;BME280;21185;50.978;13.720;2023-05-23T02:55:54;97829.81;;;19.05;64.19
34979;BME280;21185;50.978;13.720;2023-05-23T03:00:56;97824.00;;;19.03;64.79
34979;BME280;21185;50.978;13.720;2023-05-23T03:05:59;97815.53;;;19.01;64.72
34979;BME280;21185;50.978;13.720;2023-05-23T03:11:01;97812.78;;;18.96;64.71
34979;BME280;21185;50.978;13.720;2023-05-23T03:16:03;97804.31;;;18.94;64.39
34979;BME280;21185;50.978;13.720;2023-05-23T03:21:05;97797.13;;;18.89;64.93
34979;BME280;21185;50.978;13.720;2023-05-23T03:26:07;97793.91;;;18.87;65.02
34979;BME280;21185;50.978;13.720;2023-05-23T03:31:09;97794.94;;;18.86;65.18
34979;BME280;21185;50.978;13.720;2023-05-23T03:36:11;97793.91;;;18.87;64.97
34979;BME280;21185;50.978;13.720;2023-05-23T03:41:13;97786.03;;;18.87;65.25
34979;BME280;21185;50.978;13.720;2023-05-23T03:46:15;97798.38;;;18.87;65.17
34979;BME280;21185;50.978;13.720;2023-05-23T03:51:17;97789.91;;;18.85;65.54
34979;BME280;21185;50.978;13.720;2023-05-23T03:56:19;97792.53;;;18.85;65.55
34979;BME280;21185;50.978;13.720;2023-05-23T04:01:22;97810.59;;;18.81;65.41
34979;BME280;21185;50.978;13.720;2023-05-23T04:06:25;97821.06;;;18.69;66.11
34979;BME280;21185;50.978;13.720;2023-05-23T04:11:27;97832.91;;;18.60;66.51
34979;BME280;21185;50.978;13.720;2023-05-23T04:16:31;97828.31;;;18.56;66.56
34979;BME280;21185;50.978;13.720;2023-05-23T04:21:34;97829.22;;;18.50;67.48
34979;BME280;21185;50.978;13.720;2023-05-23T04:26:41;97826.22;;;18.46;67.12
34979;BME280;21185;50.978;13.720;2023-05-23T04:31:43;97827.16;;;18.52;67.35
34979;BME280;21185;50.978;13.720;2023-05-23T04:36:48;97843.50;;;18.54;67.32
34979;BME280;21185;50.978;13.720;2023-05-23T04:41:51;97846.47;;;18.57;67.14
34979;BME280;21185;50.978;13.720;2023-05-23T04:47:01;97851.44;;;18.65;67.16
34979;BME280;21185;50.978;13.720;2023-05-23T04:52:17;97864.16;;;18.68;67.42
34979;BME280;21185;50.978;13.720;2023-05-23T04:57:21;97853.41;;;18.70;67.18
34979;BME280;21185;50.978;13.720;2023-05-23T05:02:24;97845.31;;;18.71;67.51
34979;BME280;21185;50.978;13.720;2023-05-23T05:07:28;97852.28;;;18.77;67.68
34979;BME280;21185;50.978;13.720;2023-05-23T05:12:31;97844.97;;;18.80;67.69
34979;BME280;21185;50.978;13.720;2023-05-23T05:17:34;97854.69;;;18.79;67.68
34979;BME280;21185;50.978;13.720;2023-05-23T05:22:42;97851.25;;;18.79;67.90
34979;BME280;21185;50.978;13.720;2023-05-23T05:27:46;97855.03;;;18.83;68.32
34979;BME280;21185;50.978;13.720;2023-05-23T05:32:52;97851.53;;;18.89;68.23
34979;BME280;21185;50.978;13.720;2023-05-23T05:37:55;97854.84;;;18.96;68.46
34979;BME280;21185;50.978;13.720;2023-05-23T05:42:57;97852.69;;;19.04;68.51
34979;BME280;21185;50.978;13.720;2023-05-23T05:48:02;97845.94;;;19.08;69.71
34979;BME280;21185;50.978;13.720;2023-05-23T05:53:04;97852.69;;;19.04;70.05
34979;BME280;21185;50.978;13.720;2023-05-23T05:58:09;97854.53;;;19.04;70.18
34979;BME280;21185;50.978;13.720;2023-05-23T06:03:27;97862.19;;;19.05;70.66
34979;BME280;21185;50.978;13.720;2023-05-23T06:08:30;97858.75;;;19.05;71.09
34979;BME280;21185;50.978;13.720;2023-05-23T06:13:33;97865.16;;;19.09;70.97
34979;BME280;21185;50.978;13.720;2023-05-23T06:18:35;97867.66;;;19.04;71.55
34979;BME280;21185;50.978;13.720;2023-05-23T06:23:37;97886.19;;;18.97;72.32
34979;BME280;21185;50.978;13.720;2023-05-23T06:28:40;97892.56;;;18.90;72.65
34979;BME280;21185;50.978;13.720;2023-05-23T06:33:42;97887.38;;;18.83;72.54
34979;BME280;21185;50.978;13.720;2023-05-23T06:38:45;97892.66;;;18.83;72.88
34979;BME280;21185;50.978;13.720;2023-05-23T06:43:48;97903.53;;;18.87;72.83
34979;BME280;21185;50.978;13.720;2023-05-23T06:48:57;97906.72;;;18.89;72.78
34979;BME280;21185;50.978;13.720;2023-05-23T06:54:16;97907.16;;;18.86;72.63
34979;BME280;21185;50.978;13.720;2023-05-23T06:59:19;97912.06;;;18.82;73.01
34979;BME280;21185;50.978;13.720;2023-05-23T07:04:22;97915.38;;;18.77;72.59
34979;BME280;21185;50.978;13.720;2023-05-23T07:09:24;97912.16;;;18.75;72.43
34979;BME280;21185;50.978;13.720;2023-05-23T07:14:37;97912.88;;;18.83;72.31
34979;BME280;21185;50.978;13.720;2023-05-23T07:19:40;97913.13;;;18.93;72.34
34979;BME280;21185;50.978;13.720;2023-05-23T07:24:42;97917.94;;;18.96;72.18
34979;BME280;21185;50.978;13.720;2023-05-23T07:29:45;97919.19;;;18.93;71.69
34979;BME280;21185;50.978;13.720;2023-05-23T07:34:47;97913.50;;;18.96;71.51
34979;BME280;21185;50.978;13.720;2023-05-23T07:39:49;97921.38;;;18.96;71.22
34979;BME280;21185;50.978;13.720;2023-05-23T07:44:51;97921.16;;;18.98;71.18
34979;BME280;21185;50.978;13.720;2023-05-23T07:49:56;97927.56;;;19.02;71.10
34979;BME280;21185;50.978;13.720;2023-05-23T07:55:02;97925.66;;;19.09;70.62
34979;BME280;21185;50.978;13.720;2023-05-23T08:00:06;97926.38;;;19.28;70.21
34979;BME280;21185;50.978;13.720;2023-05-23T08:05:16;97923.06;;;19.32;70.15
34979;BME280;21185;50.978;13.720;2023-05-23T08:10:23;97922.25;;;19.32;70.44
34979;BME280;21185;50.978;13.720;2023-05-23T08:15:35;97930.63;;;19.40;70.40
34979;BME280;21185;50.978;13.720;2023-05-23T08:20:50;97917.88;;;19.56;70.24
34979;BME280;21185;50.978;13.720;2023-05-23T08:25:55;97929.44;;;19.78;69.78
34979;BME280;21185;50.978;13.720;2023-05-23T08:30:59;97926.56;;;19.68;69.94
34979;BME280;21185;50.978;13.720;2023-05-23T08:36:03;97936.53;;;19.66;69.79
34979;BME280;21185;50.978;13.720;2023-05-23T08:41:15;97945.66;;;19.63;69.92
34979;BME280;21185;50.978;13.720;2023-05-23T08:46:25;97949.56;;;19.61;69.82
34979;BME280;21185;50.978;13.720;2023-05-23T08:51:29;97958.88;;;19.45;70.50
34979;BME280;21185;50.978;13.720;2023-05-23T08:56:37;97965.59;;;19.29;70.32
34979;BME280;21185;50.978;13.720;2023-05-23T09:01:42;97970.63;;;19.19;70.75
34979;BME280;21185;50.978;13.720;2023-05-23T09:06:46;97972.19;;;19.08;70.87
34979;BME280;21185;50.978;13.720;2023-05-23T09:11:50;97972.50;;;19.00;70.65
34979;BME280;21185;50.978;13.720;2023-05-23T09:17:00;97979.34;;;19.01;70.79
34979;BME280;21185;50.978;13.720;2023-05-23T09:22:05;97990.59;;;19.08;70.93
34979;BME280;21185;50.978;13.720;2023-05-23T09:27:18;97982.84;;;19.14;71.05
34979;BME280;21185;50.978;13.720;2023-05-23T09:32:21;97984.78;;;19.18;71.18
34979;BME280;21185;50.978;13.720;2023-05-23T09:37:36;97976.22;;;19.23;70.97
34979;BME280;21185;50.978;13.720;2023-05-23T09:42:43;97983.66;;;19.26;71.20
34979;BME280;21185;50.978;13.720;2023-05-23T09:47:49;97990.28;;;19.17;71.27
34979;BME280;21185;50.978;13.720;2023-05-23T09:52:55;98000.31;;;19.08;71.32
34979;BME280;21185;50.978;13.720;2023-05-23T09:57:58;98002.81;;;19.03;71.68
34979;BME280;21185;50.978;13.720;2023-05-23T10:03:12;98015.81;;;18.98;71.37
34979;BME280;21185;50.978;13.720;2023-05-23T10:08:23;98011.44;;;18.92;71.19
34979;BME280;21185;50.978;13.720;2023-05-23T10:13:30;98018.31;;;18.93;70.81
34979;BME280;21185;50.978;13.720;2023-05-23T10:18:38;98017.28;;;18.94;70.26
34979;BME280;21185;50.978;13.720;2023-05-23T10:23:45;98024.88;;;19.02;69.58
34979;BME280;21185;50.978;13.720;2023-05-23T10:28:48;98013.28;;;19.21;69.03
34979;BME280;21185;50.978;13.720;2023-05-23T10:33:57;98019.38;;;19.33;68.65
34979;BME280;21185;50.978;13.720;2023-05-23T10:39:07;98033.66;;;19.26;67.98
34979;BME280;21185;50.978;13.720;2023-05-23T10:44:20;98037.47;;;19.12;68.50
34979;BME280;21185;50.978;13.720;2023-05-23T10:54:51;98049.94;;;18.86;68.54
34979;BME280;21185;50.978;13.720;2023-05-23T10:59:53;98043.59;;;18.75;68.49
34979;BME280;21185;50.978;13.720;2023-05-23T11:05:21;98052.19;;;18.64;68.67
34979;BME280;21185;50.978;13.720;2023-05-23T11:10:24;98049.66;;;18.76;68.50
34979;BME280;21185;50.978;13.720;2023-05-23T11:15:26;98057.88;;;18.98;68.01
34979;BME280;21185;50.978;13.720;2023-05-23T11:20:29;98040.63;;;19.02;66.98
34979;BME280;21185;50.978;13.720;2023-05-23T11:25:46;98046.16;;;19.12;66.50
34979;BME280;21185;50.978;13.720;2023-05-23T11:30:49;98043.47;;;19.19;65.73
34979;BME280;21185;50.978;13.720;2023-05-23T11:35:52;98048.63;;;19.25;65.51
34979;BME280;21185;50.978;13.720;2023-05-23T11:40:56;98058.88;;;19.15;65.47
34979;BME280;21185;50.978;13.720;2023-05-23T11:46:07;98047.19;;;19.11;65.25
34979;BME280;21185;50.978;13.720;2023-05-23T11:51:10;98051.56;;;19.17;65.42
34979;BME280;21185;50.978;13.720;2023-05-23T11:56:13;98048.28;;;19.22;65.53
34979;BME280;21185;50.978;13.720;2023-05-23T12:01:16;98057.53;;;19.24;65.62
34979;BME280;21185;50.978;13.720;2023-05-23T12:06:22;98039.13;;;19.24;64.73
34979;BME280;21185;50.978;13.720;2023-05-23T12:11:25;98037.78;;;19.33;64.98
34979;BME280;21185;50.978;13.720;2023-05-23T12:16:28;98031.31;;;19.48;64.45
34979;BME280;21185;50.978;13.720;2023-05-23T12:21:44;98034.81;;;19.60;64.31
34979;BME280;21185;50.978;13.720;2023-05-23T12:26:47;98046.59;;;19.57;64.23
34979;BME280;21185;50.978;13.720;2023-05-23T12:31:50;98045.00;;;19.56;64.07
34979;BME280;21185;50.978;13.720;2023-05-23T12:36:57;98041.91;;;19.59;64.01
34979;BME280;21185;50.978;13.720;2023-05-23T12:42:20;98039.50;;;19.58;64.00
34979;BME280;21185;50.978;13.720;2023-05-23T12:47:22;98045.34;;;19.60;63.67
34979;BME280;21185;50.978;13.720;2023-05-23T12:52:24;98041.31;;;19.57;64.03
34979;BME280;21185;50.978;13.720;2023-05-23T12:57:26;98042.72;;;19.60;64.08
34979;BME280;21185;50.978;13.720;2023-05-23T13:02:28;98043.72;;;19.59;63.90
34979;BME280;21185;50.978;13.720;2023-05-23T13:07:30;98061.22;;;19.53;64.27
34979;BME280;21185;50.978;13.720;2023-05-23T13:12:33;98059.22;;;19.49;64.56
34979;BME280;21185;50.978;13.720;2023-05-23T13:17:35;98058.66;;;19.47;65.01
34979;BME280;21185;50.978;13.720;2023-05-23T13:22:37;98063.22;;;19.39;64.88
34979;BME280;21185;50.978;13.720;2023-05-23T13:27:39;98060.66;;;19.33;65.10
34979;BME280;21185;50.978;13.720;2023-05-23T13:32:42;98071.28;;;19.26;64.96
34979;BME280;21185;50.978;13.720;2023-05-23T13:37:44;98069.84;;;19.12;64.91
34979;BME280;21185;50.978;13.720;2023-05-23T13:42:48;98081.97;;;18.95;65.26
34979;BME280;21185;50.978;13.720;2023-05-23T13:47:53;98092.66;;;18.82;65.88
34979;BME280;21185;50.978;13.720;2023-05-23T13:52:55;98102.94;;;18.65;66.48
34979;BME280;21185;50.978;13.720;2023-05-23T13:57:57;98107.13;;;18.48;67.47
34979;BME280;21185;50.978;13.720;2023-05-23T14:02:59;98118.38;;;18.30;68.33
34979;BME280;21185;50.978;13.720;2023-05-23T14:08:01;98116.47;;;18.19;68.95
34979;BME280;21185;50.978;13.720;2023-05-23T14:13:05;98115.28;;;18.15;69.21
34979;BME280;21185;50.978;13.720;2023-05-23T14:18:07;98125.56;;;18.16;69.59
34979;BME280;21185;50.978;13.720;2023-05-23T14:23:09;98113.41;;;18.22;70.02
34979;BME280;21185;50.978;13.720;2023-05-23T14:28:12;98119.09;;;18.19;70.34
34979;BME280;21185;50.978;13.720;2023-05-23T14:33:32;98118.53;;;18.10;71.05
34979;BME280;21185;50.978;13.720;2023-05-23T14:38:34;98124.88;;;18.02;70.74
34979;BME280;21185;50.978;13.720;2023-05-23T14:43:36;98123.31;;;17.95;71.04
34979;BME280;21185;50.978;13.720;2023-05-23T14:48:39;98131.66;;;17.85;71.69
34979;BME280;21185;50.978;13.720;2023-05-23T14:53:43;98142.19;;;17.78;71.75
34979;BME280;21185;50.978;13.720;2023-05-23T14:58:45;98141.81;;;17.75;72.41
34979;BME280;21185;50.978;13.720;2023-05-23T15:03:47;98139.19;;;17.75;72.28
34979;BME280;21185;50.978;13.720;2023-05-23T15:08:50;98142.81;;;17.74;72.25
34979;BME280;21185;50.978;13.720;2023-05-23T15:13:52;98153.13;;;17.69;72.09
34979;BME280;21185;50.978;13.720;2023-05-23T15:18:54;98142.03;;;17.67;72.22
34979;BME280;21185;50.978;13.720;2023-05-23T15:23:56;98134.19;;;17.67;72.29
34979;BME280;21185;50.978;13.720;2023-05-23T15:29:03;98143.06;;;17.66;72.18
34979;BME280;21185;50.978;13.720;2023-05-23T15:34:07;98141.84;;;17.62;72.04
34979;BME280;21185;50.978;13.720;2023-05-23T15:39:10;98149.94;;;17.60;72.21
34979;BME280;21185;50.978;13.720;2023-05-23T15:44:15;98146.53;;;17.53;71.79
34979;BME280;21185;50.978;13.720;2023-05-23T15:49:20;98157.06;;;17.46;71.54
34979;BME280;21185;50.978;13.720;2023-05-23T15:54:27;98165.38;;;17.37;71.38
34979;BME280;21185;50.978;13.720;2023-05-23T15:59:29;98166.19;;;17.31;71.15
34979;BME280;21185;50.978;13.720;2023-05-23T16:04:34;98160.56;;;17.27;71.26
34979;BME280;21185;50.978;13.720;2023-05-23T16:09:37;98156.94;;;17.22;70.93
34979;BME280;21185;50.978;13.720;2023-05-23T16:14:40;98168.25;;;17.15;70.78
34979;BME280;21185;50.978;13.720;2023-05-23T16:19:47;98180.78;;;17.07;71.01
34979;BME280;21185;50.978;13.720;2023-05-23T16:24:49;98175.78;;;16.99;71.17
34979;BME280;21185;50.978;13.720;2023-05-23T16:29:52;98172.56;;;16.90;71.40
34979;BME280;21185;50.978;13.720;2023-05-23T16:34:56;98159.47;;;16.83;71.56
34979;BME280;21185;50.978;13.720;2023-05-23T16:39:58;98174.41;;;16.76;71.45
34979;BME280;21185;50.978;13.720;2023-05-23T16:45:00;98171.19;;;16.68;72.07
34979;BME280;21185;50.978;13.720;2023-05-23T16:50:06;98172.78;;;16.62;72.28
34979;BME280;21185;50.978;13.720;2023-05-23T16:55:09;98180.03;;;16.53;72.48
34979;BME280;21185;50.978;13.720;2023-05-23T17:00:12;98175.19;;;16.44;72.50
34979;BME280;21185;50.978;13.720;2023-05-23T17:05:14;98180.03;;;16.34;73.14
34979;BME280;21185;50.978;13.720;2023-05-23T17:10:16;98186.06;;;16.28;73.00
34979;BME280;21185;50.978;13.720;2023-05-23T17:15:21;98190.09;;;16.24;73.19
34979;BME280;21185;50.978;13.720;2023-05-23T17:20:23;98209.81;;;16.13;73.15
34979;BME280;21185;50.978;13.720;2023-05-23T17:25:28;98219.25;;;16.01;73.11
34979;BME280;21185;50.978;13.720;2023-05-23T17:30:33;98212.78;;;15.90;73.31
34979;BME280;21185;50.978;13.720;2023-05-23T17:35:35;98219.84;;;15.90;73.40
34979;BME280;21185;50.978;13.720;2023-05-23T17:40:37;98234.72;;;15.89;73.40
34979;BME280;21185;50.978;13.720;2023-05-23T17:45:39;98245.16;;;15.82;73.30
34979;BME280;21185;50.978;13.720;2023-05-23T17:50:43;98247.16;;;15.74;73.45
34979;BME280;21185;50.978;13.720;2023-05-23T17:55:45;98254.56;;;15.64;73.49
34979;BME280;21185;50.978;13.720;2023-05-23T18:00:48;98255.50;;;15.49;73.61
34979;BME280;21185;50.978;13.720;2023-05-23T18:05:50;98265.72;;;15.44;73.93
34979;BME280;21185;50.978;13.720;2023-05-23T18:10:52;98260.66;;;15.36;74.02
34979;BME280;21185;50.978;13.720;2023-05-23T18:15:54;98275.88;;;15.26;74.04
34979;BME280;21185;50.978;13.720;2023-05-23T18:20:56;98280.88;;;15.21;74.13
34979;BME280;21185;50.978;13.720;2023-05-23T18:25:58;98287.66;;;15.15;73.90
34979;BME280;21185;50.978;13.720;2023-05-23T18:31:00;98299.88;;;15.08;73.88
34979;BME280;21185;50.978;13.720;2023-05-23T18:36:02;98302.19;;;14.97;73.95
34979;BME280;21185;50.978;13.720;2023-05-23T18:41:05;98315.59;;;14.87;74.30
34979;BME280;21185;50.978;13.720;2023-05-23T18:46:07;98325.41;;;14.85;74.44
34979;BME280;21185;50.978;13.720;2023-05-23T18:51:09;98329.22;;;14.82;74.36
34979;BME280;21185;50.978;13.720;2023-05-23T18:56:13;98335.81;;;14.78;74.44
34979;BME280;21185;50.978;13.720;2023-05-23T19:01:15;98349.88;;;14.77;74.64
34979;BME280;21185;50.978;13.720;2023-05-23T19:06:17;98360.69;;;14.74;74.70
34979;BME280;21185;50.978;13.720;2023-05-23T19:11:19;98368.88;;;14.71;74.58
34979;BME280;21185;50.978;13.720;2023-05-23T19:16:22;98367.28;;;14.70;74.45
34979;BME280;21185;50.978;13.720;2023-05-23T19:21:25;98372.88;;;14.67;74.70
34979;BME280;21185;50.978;13.720;2023-05-23T19:26:27;98384.38;;;14.73;74.46
34979;BME280;21185;50.978;13.720;2023-05-23T19:31:29;98401.47;;;14.75;74.14
34979;BME280;21185;50.978;13.720;2023-05-23T19:36:32;98418.78;;;14.76;74.27
34979;BME280;21185;50.978;13.720;2023-05-23T19:41:34;98405.72;;;14.76;74.14
34979;BME280;21185;50.978;13.720;2023-05-23T19:46:36;98421.75;;;14.73;73.77
34979;BME280;21185;50.978;13.720;2023-05-23T19:51:38;98428.16;;;14.71;73.72
34979;BME280;21185;50.978;13.720;2023-05-23T19:56:40;98431.31;;;14.66;73.66
34979;BME280;21185;50.978;13.720;2023-05-23T20:01:42;98438.72;;;14.63;73.60
34979;BME280;21185;50.978;13.720;2023-05-23T20:06:44;98440.88;;;14.59;73.70
34979;BME280;21185;50.978;13.720;2023-05-23T20:11:46;98451.69;;;14.56;73.41
34979;BME280;21185;50.978;13.720;2023-05-23T20:16:48;98464.50;;;14.51;73.50
34979;BME280;21185;50.978;13.720;2023-05-23T20:21:50;98454.41;;;14.48;73.43
34979;BME280;21185;50.978;13.720;2023-05-23T20:26:58;98469.44;;;14.46;73.40
34979;BME280;21185;50.978;13.720;2023-05-23T20:32:00;98472.75;;;14.40;73.25
34979;BME280;21185;50.978;13.720;2023-05-23T20:37:03;98471.50;;;14.36;73.23
34979;BME280;21185;50.978;13.720;2023-05-23T20:42:07;98476.28;;;14.32;73.37
34979;BME280;21185;50.978;13.720;2023-05-23T20:47:12;98477.44;;;14.30;73.34
34979;BME280;21185;50.978;13.720;2023-05-23T20:52:16;98482.75;;;14.21;73.31
34979;BME280;21185;50.978;13.720;2023-05-23T20:57:18;98495.78;;;14.21;73.51
34979;BME280;21185;50.978;13.720;2023-05-23T21:02:20;98501.19;;;14.20;73.37
34979;BME280;21185;50.978;13.720;2023-05-23T21:07:22;98504.16;;;14.17;73.39
34979;BME280;21185;50.978;13.720;2023-05-23T21:12:24;98506.94;;;14.15;73.32
34979;BME280;21185;50.978;13.720;2023-05-23T21:17:26;98508.94;;;14.13;73.11
34979;BME280;21185;50.978;13.720;2023-05-23T21:22:28;98515.78;;;14.14;73.29
34979;BME280;21185;50.978;13.720;2023-05-23T21:27:30;98509.56;;;14.15;73.16
34979;BME280;21185;50.978;13.720;2023-05-23T21:32:32;98514.97;;;14.14;72.85
34979;BME280;21185;50.978;13.720;2023-05-23T21:37:34;98519.00;;;14.16;72.87
34979;BME280;21185;50.978;13.720;2023-05-23T21:42:36;98519.28;;;14.21;72.71
34979;BME280;21185;50.978;13.720;2023-05-23T21:47:37;98520.28;;;14.20;72.71
34979;BME280;21185;50.978;13.720;2023-05-23T21:52:39;98518.66;;;14.19;72.43
34979;BME280;21185;50.978;13.720;2023-05-23T21:57:41;98520.47;;;14.19;72.40
34979;BME280;21185;50.978;13.720;2023-05-23T22:02:43;98518.09;;;14.09;72.15
34979;BME280;21185;50.978;13.720;2023-05-23T22:07:46;98521.78;;;14.00;72.18
34979;BME280;21185;50.978;13.720;2023-05-23T22:12:48;98528.00;;;13.99;72.33
34979;BME280;21185;50.978;13.720;2023-05-23T22:17:50;98527.63;;;14.02;72.56
34979;BME280;21185;50.978;13.720;2023-05-23T22:22:53;98525.66;;;14.04;72.49
34979;BME280;21185;50.978;13.720;2023-05-23T22:27:55;98525.19;;;14.01;72.25
34979;BME280;21185;50.978;13.720;2023-05-23T22:32:57;98531.59;;;13.98;72.24
34979;BME280;21185;50.978;13.720;2023-05-23T22:38:02;98536.00;;;13.98;72.11
34979;BME280;21185;50.978;13.720;2023-05-23T22:43:05;98523.47;;;13.93;72.21
34979;BME280;21185;50.978;13.720;2023-05-23T22:48:07;98521.03;;;13.91;72.12
34979;BME280;21185;50.978;13.720;2023-05-23T22:53:10;98512.75;;;13.88;72.27
34979;BME280;21185;50.978;13.720;2023-05-23T22:58:17;98496.47;;;13.86;72.21
34979;BME280;21185;50.978;13.720;2023-05-23T23:03:19;98481.81;;;13.85;72.24
34979;BME280;21185;50.978;13.720;2023-05-23T23:08:21;98486.75;;;13.80;72.10
34979;BME280;21185;50.978;13.720;2023-05-23T23:13:23;98493.84;;;13.71;72.21
34979;BME280;21185;50.978;13.720;2023-05-23T23:18:25;98497.97;;;13.66;72.05
34979;BME280;21185;50.978;13.720;2023-05-23T23:23:27;98500.28;;;13.60;71.76
34979;BME280;21185;50.978;13.720;2023-05-23T23:28:29;98507.66;;;13.57;71.56
34979;BME280;21185;50.978;13.720;2023-05-23T23:33:34;98508.34;;;13.51;71.33
34979;BME280;21185;50.978;13.720;2023-05-23T23:38:36;98507.53;;;13.50;71.30
34979;BME280;21185;50.978;13.720;2023-05-23T23:43:38;98511.94;;;13.50;71.35
34979;BME280;21185;50.978;13.720;2023-05-23T23:48:40;98508.34;;;13.51;71.36
34979;BME280;21185;50.978;13.720;2023-05-23T23:53:42;98510.31;;;13.49;70.77
34979;BME280;21185;50.978;13.720;2023-05-23T23:58:52;98517.50;;;13.47;70.93
